createdAt,value
2022-09-09T00:01:01.309Z,100294.97
2022-09-09T00:06:19.429Z,100293.81
2022-09-09T00:11:30.742Z,100283.34
2022-09-09T00:16:33.595Z,100290.19
2022-09-09T00:21:37.258Z,100278.09
2022-09-09T00:27:02.513Z,100283.31
2022-09-09T00:32:19.587Z,100285.94
2022-09-09T00:37:22.149Z,100281.78
2022-09-09T00:42:31.378Z,100280.91
2022-09-09T00:47:51.723Z,100286.97
2022-09-09T00:53:13.312Z,100282.66
2022-09-09T00:58:15.006Z,100274.84
2022-09-09T01:03:21.786Z,100275.66
2022-09-09T01:08:35.967Z,100278.50
2022-09-09T01:13:37.667Z,100282.06
2022-09-09T01:18:47.974Z,100282.13
2022-09-09T01:23:55.970Z,100289.00
2022-09-09T01:29:01.287Z,100286.31
2022-09-09T01:34:14.301Z,100284.84
2022-09-09T01:39:16.559Z,100284.81
2022-09-09T01:44:19.566Z,100280.44
2022-09-09T01:49:21.483Z,100278.66
2022-09-09T01:54:26.286Z,100290.13
2022-09-09T01:59:54.440Z,100272.69
2022-09-09T02:05:03.590Z,100270.97
2022-09-09T02:10:17.734Z,100281.41
2022-09-09T02:15:31.004Z,100270.06
2022-09-09T02:20:35.182Z,100273.53
2022-09-09T02:25:37.806Z,100277.88
2022-09-09T02:30:54.331Z,100278.81
2022-09-09T02:36:01.907Z,100267.56
2022-09-09T02:41:05.347Z,100269.34
2022-09-09T02:46:19.610Z,100271.75
2022-09-09T02:51:53.128Z,100274.47
2022-09-09T02:56:56.799Z,100274.53
2022-09-09T03:02:06.435Z,100270.00
2022-09-09T03:07:09.519Z,100271.84
2022-09-09T03:12:12.109Z,100272.09
2022-09-09T03:17:14.668Z,100276.41
2022-09-09T03:22:23.852Z,100279.81
2022-09-09T03:27:25.684Z,100277.09
2022-09-09T03:32:28.454Z,100281.50
2022-09-09T03:37:32.714Z,100280.59
2022-09-09T03:42:34.375Z,100290.22
2022-09-09T03:47:36.100Z,100284.13
2022-09-09T03:52:41.933Z,100278.06
2022-09-09T03:57:49.092Z,100287.63
2022-09-09T04:02:50.905Z,100279.72
2022-09-09T04:07:53.441Z,100277.78
2022-09-09T04:12:56.293Z,100275.13
2022-09-09T04:17:58.102Z,100279.50
2022-09-09T04:22:59.806Z,100287.97
2022-09-09T04:28:01.594Z,100281.75
2022-09-09T04:33:03.697Z,100287.84
2022-09-09T04:38:05.662Z,100290.59
2022-09-09T04:43:12.488Z,100297.56
2022-09-09T04:48:16.469Z,100279.94
2022-09-09T04:53:18.697Z,100289.56
2022-09-09T04:58:22.717Z,100297.41
2022-09-09T05:03:25.193Z,100295.59
2022-09-09T05:08:26.884Z,100307.84
2022-09-09T05:13:29.466Z,100307.81
2022-09-09T05:18:31.134Z,100300.66
2022-09-09T05:23:34.773Z,100303.16
2022-09-09T05:28:37.028Z,100307.69
2022-09-09T05:33:41.528Z,100312.03
2022-09-09T05:38:43.262Z,100315.31
2022-09-09T05:43:45.400Z,100308.72
2022-09-09T05:48:48.958Z,100314.06
2022-09-09T05:53:52.174Z,100310.38
2022-09-09T05:58:55.030Z,100316.53
2022-09-09T06:03:57.940Z,100310.19
2022-09-09T06:08:59.997Z,100311.19
2022-09-09T06:14:06.800Z,100325.22
2022-09-09T06:19:08.867Z,100327.56
2022-09-09T06:24:11.107Z,100324.66
2022-09-09T06:29:13.943Z,100334.31
2022-09-09T06:34:17.493Z,100333.19
2022-09-09T06:39:24.401Z,100328.59
2022-09-09T06:44:28.300Z,100329.81
2022-09-09T06:49:32.025Z,100338.25
2022-09-09T06:54:34.571Z,100325.81
2022-09-09T06:59:36.522Z,100336.13
2022-09-09T07:04:38.624Z,100335.84
2022-09-09T07:09:41.448Z,100342.13
2022-09-09T07:14:44.421Z,100333.31
2022-09-09T07:19:46.288Z,100333.75
2022-09-09T07:24:50.617Z,100332.72
2022-09-09T07:29:54.754Z,100335.38
2022-09-09T07:34:59.129Z,100327.03
2022-09-09T07:40:04.608Z,100331.91
2022-09-09T07:45:07.142Z,100337.59
2022-09-09T07:50:10.374Z,100329.25
2022-09-09T07:55:12.094Z,100336.66
2022-09-09T08:00:15.888Z,100348.72
2022-09-09T08:05:23.899Z,100359.91
2022-09-09T08:10:25.968Z,100370.06
2022-09-09T08:15:31.034Z,100377.56
2022-09-09T08:20:33.184Z,100369.53
2022-09-09T08:25:35.353Z,100366.75
2022-09-09T08:30:38.321Z,100360.88
2022-09-09T08:35:41.287Z,100365.41
2022-09-09T08:40:44.065Z,100366.75
2022-09-09T08:46:02.279Z,100367.09
2022-09-09T08:51:04.172Z,100379.47
2022-09-09T08:56:12.510Z,100384.91
2022-09-09T09:01:49.807Z,100394.47
2022-09-09T09:07:10.820Z,100386.13
2022-09-09T09:12:19.262Z,100386.03
2022-09-09T09:17:22.217Z,100385.59
2022-09-09T09:22:32.496Z,100387.69
2022-09-09T09:28:07.150Z,100386.22
2022-09-09T09:33:22.116Z,100377.13
2022-09-09T09:43:54.490Z,100382.44
2022-09-09T09:49:04.314Z,100381.38
2022-09-09T09:54:38.503Z,100378.97
2022-09-09T09:59:40.979Z,100375.78
2022-09-09T10:04:49.251Z,100375.16
2022-09-09T10:09:56.684Z,100383.69
2022-09-09T10:15:40.959Z,100367.63
2022-09-09T10:21:04.059Z,100365.88
2022-09-09T10:26:28.278Z,100350.19
2022-09-09T10:31:53.859Z,100349.13
2022-09-09T10:36:55.488Z,100351.97
2022-09-09T10:42:08.096Z,100341.78
2022-09-09T10:47:29.938Z,100333.19
2022-09-09T10:52:40.239Z,100335.66
2022-09-09T10:57:46.942Z,100332.63
2022-09-09T11:03:01.511Z,100335.56
2022-09-09T11:08:09.438Z,100333.22
2022-09-09T11:13:19.539Z,100322.41
2022-09-09T11:18:23.868Z,100318.13
2022-09-09T11:23:28.872Z,100320.41
2022-09-09T11:28:38.803Z,100321.28
2022-09-09T11:33:40.387Z,100337.84
2022-09-09T11:38:46.736Z,100343.44
2022-09-09T11:43:48.995Z,100357.78
2022-09-09T11:49:01.550Z,100338.69
2022-09-09T11:54:36.045Z,100330.91
2022-09-09T11:59:38.197Z,100339.00
2022-09-09T12:04:40.817Z,100347.75
2022-09-09T12:10:26.244Z,100357.66
2022-09-09T12:15:30.027Z,100363.16
2022-09-09T12:20:32.564Z,100357.75
2022-09-09T12:26:11.668Z,100375.13
2022-09-09T12:31:18.993Z,100369.69
2022-09-09T12:36:28.037Z,100354.59
2022-09-09T12:41:29.966Z,100360.41
2022-09-09T12:46:37.680Z,100354.31
2022-09-09T12:51:39.341Z,100349.03
2022-09-09T12:56:40.949Z,100362.06
2022-09-09T13:01:42.689Z,100375.63
2022-09-09T13:06:44.483Z,100369.47
2022-09-09T13:11:51.569Z,100357.56
2022-09-09T13:17:00.411Z,100365.09
2022-09-09T13:22:14.091Z,100354.66
2022-09-09T13:27:29.242Z,100337.22
2022-09-09T13:32:32.039Z,100344.81
2022-09-09T13:37:38.117Z,100328.94
2022-09-09T13:42:41.256Z,100323.91
2022-09-09T13:47:43.014Z,100325.75
2022-09-09T13:52:44.630Z,100321.03
2022-09-09T13:57:53.694Z,100318.78
2022-09-09T14:02:58.350Z,100324.78
2022-09-09T14:08:01.507Z,100330.47
2022-09-09T14:13:03.101Z,100315.94
2022-09-09T14:18:04.994Z,100320.50
2022-09-09T14:23:07.362Z,100323.13
2022-09-09T14:28:10.904Z,100326.25
2022-09-09T14:33:14.492Z,100330.53
2022-09-09T14:38:19.048Z,100335.09
2022-09-09T14:43:21.236Z,100330.16
2022-09-09T14:48:22.864Z,100331.44
2022-09-09T14:53:24.489Z,100328.03
2022-09-09T14:58:29.316Z,100317.09
2022-09-09T15:03:33.446Z,100308.47
2022-09-09T15:08:41.700Z,100303.44
2022-09-09T15:13:44.268Z,100312.44
2022-09-09T15:18:46.298Z,100315.31
2022-09-09T15:23:48.505Z,100324.88
2022-09-09T15:28:50.711Z,100325.44
2022-09-09T15:34:03.397Z,100321.16
2022-09-09T15:39:10.578Z,100323.16
2022-09-09T15:44:13.128Z,100322.53
2022-09-09T15:49:15.440Z,100315.25
2022-09-09T15:54:18.922Z,100304.53
2022-09-09T15:59:20.575Z,100302.66
2022-09-09T16:04:25.461Z,100320.19
2022-09-09T16:09:27.698Z,100317.78
2022-09-09T16:14:29.573Z,100322.53
2022-09-09T16:19:31.199Z,100322.84
2022-09-09T16:24:32.965Z,100323.31
2022-09-09T16:29:34.597Z,100317.22
2022-09-09T16:34:36.229Z,100318.75
2022-09-09T16:39:37.898Z,100309.06
2022-09-09T16:44:39.537Z,100308.28
2022-09-09T16:49:41.198Z,100310.47
2022-09-09T16:54:42.827Z,100301.34
2022-09-09T16:59:44.818Z,100305.28
2022-09-09T17:04:46.443Z,100309.44
2022-09-09T17:09:48.155Z,100304.34
2022-09-09T17:14:50.789Z,100308.22
2022-09-09T17:19:52.432Z,100301.91
2022-09-09T17:24:54.079Z,100314.06
2022-09-09T17:29:55.743Z,100308.06
2022-09-09T17:34:58.491Z,100309.81
2022-09-09T17:40:00.277Z,100315.97
2022-09-09T17:45:02.130Z,100321.19
2022-09-09T17:50:03.904Z,100328.13
2022-09-09T17:55:06.243Z,100336.66
2022-09-09T18:00:09.361Z,100342.53
2022-09-09T18:05:13.760Z,100346.56
2022-09-09T18:10:15.443Z,100339.16
2022-09-09T18:15:28.281Z,100345.91
2022-09-09T18:20:38.656Z,100350.84
2022-09-09T18:25:40.673Z,100361.84
2022-09-09T18:30:42.336Z,100372.72
2022-09-09T18:35:43.972Z,100371.50
2022-09-09T18:40:45.652Z,100369.09
2022-09-09T18:45:47.278Z,100372.06
2022-09-09T18:50:48.905Z,100364.38
2022-09-09T18:55:59.099Z,100371.75
2022-09-09T19:01:01.071Z,100380.63
2022-09-09T19:06:04.513Z,100378.31
2022-09-09T19:11:08.620Z,100375.84
2022-09-09T19:16:13.387Z,100372.16
2022-09-09T19:21:22.665Z,100371.38
2022-09-09T19:26:24.313Z,100367.78
2022-09-09T19:31:27.898Z,100369.66
2022-09-09T19:36:29.590Z,100371.75
2022-09-09T19:41:37.265Z,100369.81
2022-09-09T19:46:39.839Z,100377.91
2022-09-09T19:51:41.451Z,100385.03
2022-09-09T19:56:43.167Z,100384.19
2022-09-09T20:01:45.227Z,100383.31
2022-09-09T20:06:47.127Z,100381.66
2022-09-09T20:11:49.098Z,100378.91
2022-09-09T20:16:50.696Z,100378.44
2022-09-09T20:21:52.547Z,100393.34
2022-09-09T20:26:54.242Z,100397.66
2022-09-09T20:31:55.863Z,100396.16
2022-09-09T20:36:59.223Z,100408.78
2022-09-09T20:42:01.245Z,100405.31
2022-09-09T20:47:06.554Z,100411.91
2022-09-09T20:52:10.978Z,100420.28
2022-09-09T20:57:14.535Z,100431.78
2022-09-09T21:02:18.013Z,100439.72
2022-09-09T21:07:19.652Z,100452.16
2022-09-09T21:12:21.392Z,100450.44
2022-09-09T21:17:23.440Z,100456.78
2022-09-09T21:22:25.116Z,100445.44
2022-09-09T21:27:26.747Z,100443.50
2022-09-09T21:32:28.350Z,100446.13
2022-09-09T21:37:30.098Z,100459.28
2022-09-09T21:42:31.708Z,100462.81
2022-09-09T21:47:33.309Z,100462.88
2022-09-09T21:52:34.927Z,100454.34
2022-09-09T21:57:36.538Z,100454.53
2022-09-09T22:02:38.427Z,100444.00
2022-09-09T22:07:40.173Z,100444.88
2022-09-09T22:12:41.783Z,100436.22
2022-09-09T22:17:43.452Z,100439.75
2022-09-09T22:22:45.094Z,100444.16
2022-09-09T22:27:46.708Z,100438.06
2022-09-09T22:32:48.333Z,100447.78
2022-09-09T22:37:49.995Z,100453.97
2022-09-09T22:42:52.959Z,100448.84
2022-09-09T22:47:54.848Z,100442.56
2022-09-09T22:52:56.476Z,100440.88
2022-09-09T22:57:58.863Z,100437.25
2022-09-09T23:03:00.481Z,100429.66
2022-09-09T23:08:02.218Z,100422.66
2022-09-09T23:13:03.856Z,100432.34
2022-09-09T23:18:06.107Z,100435.19
2022-09-09T23:23:08.107Z,100423.84
2022-09-09T23:28:09.711Z,100424.97
2022-09-09T23:33:11.355Z,100428.63
2022-09-09T23:38:14.175Z,100420.19
2022-09-09T23:43:15.813Z,100424.81
2022-09-09T23:48:17.826Z,100424.00
2022-09-09T23:53:19.527Z,100431.19
2022-09-09T23:58:21.157Z,100433.97
